createdAt,value
2018-12-06T00:00:16.519Z,11.67
2018-12-06T00:02:49.354Z,11.10
2018-12-06T00:05:25.297Z,10.13
2018-12-06T00:08:10.295Z,14.53
2018-12-06T00:10:42.942Z,12.23
2018-12-06T00:13:17.983Z,10.37
2018-12-06T00:15:53.212Z,10.43
2018-12-06T00:18:26.308Z,12.40
2018-12-06T00:20:59.167Z,12.33
2018-12-06T00:23:33.809Z,14.67
2018-12-06T00:26:09.027Z,11.77
2018-12-06T00:28:44.704Z,16.60
2018-12-06T00:31:19.928Z,12.70
2018-12-06T00:33:54.736Z,11.97
2018-12-06T00:36:28.175Z,13.97
2018-12-06T00:39:04.096Z,13.03
2018-12-06T00:41:38.778Z,9.70
2018-12-06T00:44:14.081Z,9.57
2018-12-06T00:46:47.112Z,11.87
2018-12-06T00:49:20.084Z,15.30
2018-12-06T00:51:54.668Z,12.27
2018-12-06T00:54:29.889Z,12.33
2018-12-06T00:57:02.942Z,9.67
2018-12-06T00:59:37.501Z,13.07
2018-12-06T01:02:12.091Z,13.03
2018-12-06T01:04:44.820Z,12.00
2018-12-06T01:07:20.766Z,14.40
2018-12-06T01:09:57.512Z,11.03
2018-12-06T01:17:32.533Z,11.37
2018-12-06T01:20:05.743Z,12.67
2018-12-06T01:22:41.745Z,12.33
2018-12-06T01:25:14.441Z,10.33
2018-12-06T01:27:49.754Z,10.67
2018-12-06T01:30:22.427Z,9.67
2018-12-06T01:32:55.228Z,8.83
2018-12-06T01:35:27.552Z,11.27
2018-12-06T01:38:00.031Z,9.90
2018-12-06T01:40:32.735Z,14.40
2018-12-06T01:43:07.952Z,10.70
2018-12-06T01:45:44.076Z,14.97
2018-12-06T01:48:17.449Z,9.90
2018-12-06T01:50:52.516Z,10.93
2018-12-06T01:53:25.740Z,10.73
2018-12-06T01:55:58.415Z,12.77
2018-12-06T01:58:31.265Z,9.23
2018-12-06T02:01:03.525Z,10.80
2018-12-06T02:03:38.706Z,11.33
2018-12-06T02:06:13.405Z,9.10
2018-12-06T02:08:46.411Z,9.57
2018-12-06T02:11:19.011Z,9.77
2018-12-06T02:13:51.561Z,9.63
2018-12-06T02:21:27.631Z,9.93
2018-12-06T02:23:59.940Z,10.73
2018-12-06T02:26:32.421Z,9.57
2018-12-06T02:29:07.758Z,9.23
2018-12-06T02:31:43.732Z,11.33
2018-12-06T02:34:20.200Z,8.43
2018-12-06T02:36:55.392Z,8.70
2018-12-06T02:39:29.996Z,7.93
2018-12-06T02:42:02.759Z,8.30
2018-12-06T02:44:37.665Z,7.97
2018-12-06T02:47:12.682Z,8.53
2018-12-06T02:49:45.537Z,10.17
2018-12-06T02:52:20.888Z,11.50
2018-12-06T02:54:55.340Z,10.60
2018-12-06T02:57:28.363Z,10.13
2018-12-06T03:00:00.546Z,8.10
2018-12-06T03:02:32.750Z,8.23
2018-12-06T03:05:05.409Z,9.57
2018-12-06T03:07:50.330Z,11.23
2018-12-06T03:10:22.962Z,11.57
2018-12-06T03:12:56.816Z,12.93
2018-12-06T03:15:29.581Z,11.00
2018-12-06T03:18:04.067Z,9.27
2018-12-06T03:20:39.222Z,10.03
2018-12-06T03:23:13.881Z,13.33
2018-12-06T03:25:48.430Z,11.93
2018-12-06T03:28:22.638Z,11.67
2018-12-06T03:30:57.181Z,13.67
2018-12-06T03:33:31.528Z,15.50
2018-12-06T03:36:05.881Z,14.63
2018-12-06T03:38:38.955Z,15.17
2018-12-06T03:41:14.274Z,16.10
2018-12-06T03:43:48.681Z,13.17
2018-12-06T03:46:20.792Z,17.97
2018-12-06T03:48:53.437Z,15.10
2018-12-06T03:51:28.004Z,17.50
2018-12-06T03:54:03.206Z,16.27
2018-12-06T03:56:36.782Z,14.37
2018-12-06T03:59:16.344Z,18.20
2018-12-06T04:01:51.531Z,18.47
2018-12-06T04:04:23.673Z,13.63
2018-12-06T04:06:58.941Z,19.23
2018-12-06T04:09:33.870Z,17.07
2018-12-06T04:12:06.595Z,17.60
2018-12-06T04:14:41.052Z,17.23
2018-12-06T04:17:13.436Z,15.23
2018-12-06T04:19:45.592Z,15.67
2018-12-06T04:22:20.173Z,15.47
2018-12-06T04:24:55.525Z,15.77
2018-12-06T04:27:28.377Z,17.13
2018-12-06T04:30:00.792Z,17.37
2018-12-06T04:32:35.177Z,20.63
2018-12-06T04:35:08.042Z,12.83
2018-12-06T04:37:42.395Z,17.70
2018-12-06T04:40:17.278Z,16.97
2018-12-06T04:42:50.125Z,21.07
2018-12-06T04:45:22.653Z,23.67
2018-12-06T04:47:55.512Z,25.83
2018-12-06T04:50:30.111Z,20.47
2018-12-06T04:53:04.477Z,22.57
2018-12-06T04:55:39.429Z,24.03
2018-12-06T04:58:12.277Z,18.83
2018-12-06T05:00:44.718Z,25.87
2018-12-06T05:03:17.280Z,27.83
2018-12-06T05:05:49.863Z,31.73
2018-12-06T05:08:24.353Z,33.00
2018-12-06T05:13:53.130Z,41.40
2018-12-06T05:16:26.197Z,31.23
2018-12-06T05:19:00.871Z,37.37
2018-12-06T05:21:35.457Z,32.33
2018-12-06T05:24:08.267Z,37.73
2018-12-06T05:26:42.802Z,35.20
2018-12-06T05:29:17.415Z,33.03
2018-12-06T05:31:52.633Z,35.20
2018-12-06T05:37:20.737Z,41.07
2018-12-06T05:39:55.675Z,33.40
2018-12-06T05:42:39.487Z,34.87
2018-12-06T05:45:11.765Z,37.37
2018-12-06T05:47:47.448Z,31.77
2018-12-06T05:53:25.298Z,34.03
2018-12-06T05:55:57.868Z,38.63
2018-12-06T05:58:31.781Z,32.80
2018-12-06T06:01:04.405Z,31.87
2018-12-06T06:03:39.474Z,37.17
2018-12-06T06:06:12.366Z,29.67
2018-12-06T06:08:50.710Z,35.90
2018-12-06T06:11:33.852Z,36.83
2018-12-06T06:14:06.477Z,30.93
2018-12-06T06:16:38.908Z,30.80
2018-12-06T06:19:11.325Z,31.90
2018-12-06T06:21:44.239Z,40.17
2018-12-06T06:24:16.803Z,34.40
2018-12-06T06:26:53.313Z,29.37
2018-12-06T06:34:34.852Z,32.27
2018-12-06T06:37:08.746Z,28.57
2018-12-06T06:39:43.385Z,34.87
2018-12-06T06:42:18.584Z,24.37
2018-12-06T06:45:02.079Z,28.67
2018-12-06T06:47:42.006Z,26.47
2018-12-06T06:50:17.359Z,29.13
2018-12-06T06:52:52.807Z,26.13
2018-12-06T06:58:25.795Z,28.20
2018-12-06T07:01:01.148Z,32.77
2018-12-06T07:03:39.927Z,32.97
2018-12-06T07:06:25.694Z,26.30
2018-12-06T07:09:01.420Z,32.97
2018-12-06T07:11:37.779Z,36.57
2018-12-06T07:14:15.591Z,37.60
2018-12-06T07:16:49.851Z,40.50
2018-12-06T07:19:29.677Z,45.37
2018-12-06T07:25:04.037Z,49.33
2018-12-06T07:27:43.330Z,44.33
2018-12-06T07:30:24.325Z,41.10
2018-12-06T07:33:02.110Z,42.13
2018-12-06T07:35:43.854Z,44.07
2018-12-06T07:38:17.326Z,47.53
2018-12-06T07:40:52.585Z,45.43
2018-12-06T07:43:37.837Z,43.37
2018-12-06T07:46:11.325Z,40.77
2018-12-06T07:48:43.115Z,49.90
2018-12-06T07:51:12.866Z,45.47
2018-12-06T07:53:43.319Z,42.00
2018-12-06T07:56:12.497Z,48.13
2018-12-06T07:58:47.169Z,43.30
2018-12-06T08:01:16.982Z,49.60
2018-12-06T08:03:47.679Z,48.60
2018-12-06T08:06:17.063Z,57.90
2018-12-06T08:08:46.802Z,54.70
2018-12-06T08:11:15.935Z,55.23
2018-12-06T08:13:46.421Z,54.73
2018-12-06T08:16:16.241Z,50.23
2018-12-06T08:18:45.509Z,58.93
2018-12-06T08:21:14.869Z,58.60
2018-12-06T08:23:44.799Z,57.57
2018-12-06T08:26:13.943Z,53.90
2018-12-06T08:28:44.828Z,48.27
2018-12-06T08:31:15.293Z,49.63
2018-12-06T08:33:44.510Z,42.73
2018-12-06T08:36:15.071Z,52.70
2018-12-06T08:38:49.645Z,47.33
2018-12-06T08:41:18.805Z,45.23
2018-12-06T08:43:48.255Z,46.63
2018-12-06T08:46:26.441Z,48.43
2018-12-06T08:49:02.834Z,46.50
2018-12-06T08:51:27.315Z,52.00
2018-12-06T08:53:56.770Z,49.13
2018-12-06T08:56:25.945Z,46.77
2018-12-06T08:58:55.432Z,57.63
2018-12-06T09:01:24.709Z,55.57
2018-12-06T09:03:55.077Z,54.30
2018-12-06T09:06:25.756Z,70.00
2018-12-06T09:08:56.761Z,57.33
2018-12-06T09:11:27.299Z,71.80
2018-12-06T09:14:09.513Z,68.03
2018-12-06T09:16:43.215Z,70.00
2018-12-06T09:19:12.405Z,60.13
2018-12-06T09:21:42.899Z,59.67
2018-12-06T09:24:12.104Z,54.73
2018-12-06T09:26:41.794Z,53.13
2018-12-06T09:29:11.605Z,58.53
2018-12-06T09:31:41.019Z,50.27
2018-12-06T09:34:10.158Z,57.37
2018-12-06T09:36:42.424Z,133.10
2018-12-06T09:39:13.223Z,66.27
2018-12-06T09:41:48.410Z,51.27
2018-12-06T09:44:19.341Z,53.33
2018-12-06T09:46:51.275Z,48.87
2018-12-06T09:49:26.649Z,49.30
2018-12-06T09:51:56.669Z,50.40
2018-12-06T09:54:26.087Z,47.23
2018-12-06T09:57:02.151Z,51.93
2018-12-06T09:59:33.388Z,81.37
2018-12-06T10:02:02.832Z,52.97
2018-12-06T10:04:34.173Z,47.50
2018-12-06T10:07:04.726Z,47.07
2018-12-06T10:09:34.244Z,56.53
2018-12-06T10:12:03.433Z,54.67
2018-12-06T10:14:33.580Z,54.17
2018-12-06T10:17:03.694Z,54.10
2018-12-06T10:19:32.791Z,56.50
2018-12-06T10:22:02.829Z,58.13
2018-12-06T10:24:34.841Z,50.97
2018-12-06T10:27:04.870Z,53.80
2018-12-06T10:29:34.779Z,47.63
2018-12-06T10:32:04.420Z,55.50
2018-12-06T10:34:33.573Z,52.77
2018-12-06T10:37:10.235Z,66.43
2018-12-06T10:39:39.840Z,62.30
2018-12-06T10:42:10.691Z,55.70
2018-12-06T10:44:49.598Z,54.90
2018-12-06T10:47:21.340Z,53.97
2018-12-06T10:50:00.216Z,60.73
2018-12-06T10:52:46.370Z,48.13
2018-12-06T10:55:25.930Z,49.80
2018-12-06T10:57:55.050Z,99.13
2018-12-06T11:00:29.676Z,84.63
2018-12-06T11:03:22.688Z,99.57
2018-12-06T11:05:53.760Z,96.33
2018-12-06T11:08:24.140Z,60.40
2018-12-06T11:10:55.970Z,51.17
2018-12-06T11:13:25.661Z,54.40
2018-12-06T11:15:58.603Z,46.53
2018-12-06T11:18:28.794Z,54.07
2018-12-06T11:21:00.630Z,57.83
2018-12-06T11:23:29.845Z,52.63
2018-12-06T11:26:00.466Z,60.77
2018-12-06T11:28:31.463Z,51.17
2018-12-06T11:31:03.309Z,48.20
2018-12-06T11:33:32.736Z,49.23
2018-12-06T11:36:03.564Z,52.63
2018-12-06T11:38:33.242Z,49.33
2018-12-06T11:41:04.151Z,50.93
2018-12-06T11:43:34.828Z,43.53
2018-12-06T11:46:03.980Z,49.83
2018-12-06T11:48:34.848Z,43.33
2018-12-06T11:51:14.870Z,43.20
2018-12-06T11:53:46.058Z,42.27
2018-12-06T11:56:16.309Z,42.70
2018-12-06T11:58:47.402Z,51.73
2018-12-06T12:01:18.362Z,36.03
2018-12-06T12:03:54.360Z,33.90
2018-12-06T12:06:23.580Z,32.07
2018-12-06T12:08:53.420Z,36.00
2018-12-06T12:11:25.340Z,28.07
2018-12-06T12:13:54.748Z,35.70
2018-12-06T12:16:30.276Z,29.13
2018-12-06T12:19:02.290Z,34.90
2018-12-06T12:24:29.611Z,32.87
2018-12-06T12:27:00.200Z,35.47
2018-12-06T12:29:31.307Z,49.17
2018-12-06T12:32:09.944Z,37.20
2018-12-06T12:34:44.394Z,38.73
2018-12-06T12:37:27.300Z,37.47
2018-12-06T12:40:07.703Z,39.40
2018-12-06T12:42:45.858Z,40.03
2018-12-06T12:45:22.782Z,35.73
2018-12-06T12:47:54.147Z,40.60
2018-12-06T12:50:32.295Z,55.70
2018-12-06T12:53:23.060Z,39.07
2018-12-06T12:56:08.975Z,45.50
2018-12-06T12:58:46.895Z,40.40
2018-12-06T13:01:28.378Z,44.77
2018-12-06T13:03:59.481Z,35.57
2018-12-06T13:06:33.627Z,32.30
2018-12-06T13:09:06.803Z,33.50
2018-12-06T13:11:38.147Z,29.77
2018-12-06T13:14:09.165Z,35.27
2018-12-06T13:16:48.315Z,38.13
2018-12-06T13:19:23.254Z,35.60
2018-12-06T13:21:55.670Z,29.80
2018-12-06T13:24:26.058Z,34.93
2018-12-06T13:27:14.347Z,33.03
2018-12-06T13:32:45.630Z,22.20
2018-12-06T13:35:15.820Z,30.20
2018-12-06T13:37:49.823Z,30.93
2018-12-06T13:40:22.501Z,35.40
2018-12-06T13:42:56.124Z,24.37
2018-12-06T13:45:31.739Z,25.33
2018-12-06T13:48:23.313Z,28.67
2018-12-06T13:50:55.754Z,27.10
2018-12-06T13:53:31.473Z,23.30
2018-12-06T13:56:04.810Z,19.03
2018-12-06T13:58:36.698Z,29.83
2018-12-06T14:01:12.435Z,38.60
2018-12-06T14:03:48.744Z,31.63
2018-12-06T14:06:19.328Z,32.13
2018-12-06T14:11:52.055Z,26.07
2018-12-06T14:14:37.339Z,22.37
2018-12-06T14:17:18.453Z,21.93
2018-12-06T14:19:53.251Z,23.20
2018-12-06T14:22:23.185Z,18.97
2018-12-06T14:24:56.801Z,28.47
2018-12-06T14:27:26.691Z,19.30
2018-12-06T14:29:57.104Z,16.63
2018-12-06T14:32:29.162Z,25.53
2018-12-06T14:35:04.775Z,21.00
2018-12-06T14:37:37.792Z,24.67
2018-12-06T14:43:15.203Z,22.40
2018-12-06T14:45:49.284Z,20.57
2018-12-06T14:48:33.017Z,22.37
2018-12-06T14:51:08.479Z,24.33
2018-12-06T14:53:44.179Z,22.80
2018-12-06T14:56:19.061Z,21.13
2018-12-06T14:58:55.544Z,26.40
2018-12-06T15:04:59.953Z,26.60
2018-12-06T15:07:36.970Z,28.60
2018-12-06T15:10:10.504Z,30.23
2018-12-06T15:13:03.655Z,28.63
2018-12-06T15:25:02.939Z,30.00
2018-12-06T15:43:04.893Z,23.43
2018-12-06T15:45:38.606Z,24.67
2018-12-06T16:06:47.063Z,21.03
2018-12-06T16:15:33.881Z,22.73
2018-12-06T16:21:15.487Z,27.23
2018-12-06T16:23:57.088Z,43.87
2018-12-06T16:47:54.154Z,26.83
2018-12-06T16:50:42.243Z,25.47
2018-12-06T16:53:14.280Z,22.03
2018-12-06T16:55:48.290Z,23.60
2018-12-06T16:58:41.074Z,18.57
2018-12-06T17:01:14.283Z,29.53
2018-12-06T17:04:02.018Z,24.17
2018-12-06T17:12:11.815Z,25.93
2018-12-06T17:14:48.096Z,31.00
2018-12-06T17:17:24.069Z,23.63
2018-12-06T17:20:08.956Z,34.63
2018-12-06T17:22:46.500Z,31.30
2018-12-06T17:25:24.141Z,30.10
2018-12-06T17:28:08.491Z,26.47
2018-12-06T17:39:54.393Z,27.10
2018-12-06T17:45:45.471Z,24.50
2018-12-06T17:48:37.816Z,23.20
2018-12-06T18:15:52.437Z,22.80
2018-12-06T18:18:51.089Z,21.20
2018-12-06T18:45:39.757Z,22.23
2018-12-06T18:48:21.647Z,20.40
2018-12-06T19:02:51.954Z,17.13
2018-12-06T19:08:24.380Z,16.27
2018-12-06T19:11:00.864Z,19.20
2018-12-06T19:19:58.232Z,19.93
2018-12-06T19:22:48.966Z,24.47
2018-12-06T19:25:30.558Z,25.23
2018-12-06T19:28:20.529Z,25.23
2018-12-06T19:30:58.332Z,25.73
2018-12-06T19:33:36.578Z,25.00
2018-12-06T19:36:27.758Z,27.07
2018-12-06T19:42:11.908Z,25.17
2018-12-06T19:44:58.660Z,22.93
2018-12-06T19:47:39.986Z,25.93
2018-12-06T19:53:28.003Z,21.97
2018-12-06T19:56:03.863Z,22.87
2018-12-06T19:58:51.178Z,19.03
2018-12-06T20:01:35.629Z,26.13
2018-12-06T20:07:15.066Z,18.73
2018-12-06T20:12:53.698Z,20.20
2018-12-06T20:15:33.324Z,21.23
2018-12-06T20:18:08.695Z,22.50
2018-12-06T20:20:44.033Z,20.37
2018-12-06T20:23:19.250Z,20.73
2018-12-06T20:25:55.010Z,23.03
2018-12-06T20:28:30.360Z,21.47
2018-12-06T20:31:07.250Z,25.83
2018-12-06T20:33:42.436Z,21.60
2018-12-06T20:36:27.457Z,26.70
2018-12-06T20:39:01.532Z,24.40
2018-12-06T20:41:38.535Z,21.53
2018-12-06T20:44:12.494Z,23.83
2018-12-06T20:46:49.377Z,22.80
2018-12-06T20:49:26.332Z,19.27
2018-12-06T20:52:04.133Z,22.73
2018-12-06T20:54:51.396Z,21.93
2018-12-06T21:00:25.199Z,29.80
2018-12-06T21:03:09.777Z,20.53
2018-12-06T21:05:50.463Z,16.20
2018-12-06T21:08:26.537Z,16.37
2018-12-06T21:11:02.749Z,17.03
2018-12-06T21:13:44.455Z,16.20
2018-12-06T21:16:20.139Z,20.43
2018-12-06T21:19:10.127Z,19.00
2018-12-06T21:21:50.644Z,19.27
2018-12-06T21:24:26.248Z,16.93
2018-12-06T21:27:09.820Z,19.33
2018-12-06T21:29:44.183Z,18.10
2018-12-06T21:35:00.695Z,18.07
2018-12-06T21:37:36.839Z,17.50
2018-12-06T21:40:23.958Z,17.10
2018-12-06T21:42:58.919Z,19.13
2018-12-06T21:45:40.808Z,18.37
2018-12-06T21:48:30.737Z,17.97
2018-12-06T21:51:05.518Z,19.23
2018-12-06T21:53:41.154Z,19.53
2018-12-06T21:56:16.279Z,19.67
2018-12-06T21:59:00.601Z,21.83
2018-12-06T22:01:36.296Z,18.23
2018-12-06T22:04:19.253Z,18.97
2018-12-06T22:06:58.495Z,21.20
2018-12-06T22:09:32.642Z,19.23
2018-12-06T22:15:00.191Z,17.30
2018-12-06T22:20:33.687Z,19.80
2018-12-06T22:23:16.804Z,17.93
2018-12-06T22:25:56.989Z,19.47
2018-12-06T22:28:35.164Z,21.17
2018-12-06T22:31:09.625Z,47.10
2018-12-06T22:33:43.913Z,39.87
2018-12-06T22:36:21.692Z,19.50
2018-12-06T22:38:56.722Z,21.33
2018-12-06T22:41:31.942Z,21.57
2018-12-06T22:44:05.578Z,20.50
2018-12-06T22:46:40.924Z,20.23
2018-12-06T22:49:18.993Z,17.77
2018-12-06T22:51:54.232Z,18.33
2018-12-06T22:54:27.645Z,20.10
2018-12-06T22:59:45.833Z,11.67
2018-12-06T23:35:39.280Z,12.63
2018-12-06T23:59:32.389Z,15.67
